createdAt,value
2022-12-22T00:01:18.281Z,8.10
2022-12-22T00:04:03.886Z,8.00
2022-12-22T00:06:49.188Z,8.10
2022-12-22T00:09:35.790Z,8.00
2022-12-22T00:12:21.471Z,8.10
2022-12-22T00:15:08.207Z,8.10
2022-12-22T00:17:53.807Z,8.20
2022-12-22T00:20:39.821Z,8.10
2022-12-22T00:23:27.530Z,8.10
2022-12-22T00:26:14.289Z,8.10
2022-12-22T00:29:00.372Z,8.10
2022-12-22T00:31:46.548Z,8.10
2022-12-22T00:34:34.262Z,8.10
2022-12-22T00:37:19.942Z,8.00
2022-12-22T00:40:05.459Z,8.10
2022-12-22T00:42:52.204Z,8.10
2022-12-22T00:45:38.328Z,8.20
2022-12-22T00:48:27.604Z,8.20
2022-12-22T00:51:13.007Z,8.10
2022-12-22T00:53:58.787Z,8.10
2022-12-22T00:56:44.203Z,8.10
2022-12-22T00:59:31.077Z,8.10
2022-12-22T01:02:16.830Z,8.20
2022-12-22T01:05:02.203Z,8.10
2022-12-22T01:07:48.753Z,8.20
2022-12-22T01:10:35.133Z,8.20
2022-12-22T01:13:20.488Z,8.10
2022-12-22T01:16:07.297Z,8.20
2022-12-22T01:18:52.612Z,8.20
2022-12-22T01:21:39.298Z,8.10
2022-12-22T01:24:29.978Z,8.20
2022-12-22T01:27:15.564Z,8.20
2022-12-22T01:30:01.089Z,8.20
2022-12-22T01:32:48.311Z,8.20
2022-12-22T01:35:39.368Z,8.20
2022-12-22T01:38:25.153Z,8.10
2022-12-22T01:41:12.099Z,8.10
2022-12-22T01:43:57.709Z,8.20
2022-12-22T01:46:44.945Z,8.20
2022-12-22T01:49:34.376Z,8.20
2022-12-22T01:52:21.352Z,8.10
2022-12-22T01:55:07.903Z,8.10
2022-12-22T01:57:54.913Z,8.20
2022-12-22T02:00:41.097Z,8.20
2022-12-22T02:06:19.639Z,8.20
2022-12-22T02:09:17.576Z,8.20
2022-12-22T02:12:12.809Z,8.20
2022-12-22T02:15:04.337Z,8.20
2022-12-22T02:17:59.025Z,8.10
2022-12-22T02:20:55.279Z,8.10
2022-12-22T02:23:55.202Z,8.20
2022-12-22T02:26:47.394Z,8.10
2022-12-22T02:29:35.403Z,8.10
2022-12-22T02:32:23.100Z,8.20
2022-12-22T02:35:08.382Z,8.10
2022-12-22T02:38:01.668Z,8.20
2022-12-22T02:40:52.964Z,8.20
2022-12-22T02:44:00.504Z,8.10
2022-12-22T02:46:52.467Z,8.20
2022-12-22T02:49:43.832Z,8.20
2022-12-22T02:52:34.144Z,8.20
2022-12-22T02:55:19.948Z,8.10
2022-12-22T02:58:08.635Z,8.10
2022-12-22T03:00:55.233Z,8.20
2022-12-22T03:03:41.094Z,8.20
2022-12-22T03:06:26.928Z,8.10
2022-12-22T03:09:12.545Z,8.10
2022-12-22T03:11:58.250Z,8.20
2022-12-22T03:14:43.766Z,8.20
2022-12-22T03:17:30.478Z,8.20
2022-12-22T03:20:16.121Z,8.10
2022-12-22T03:23:01.644Z,8.20
2022-12-22T03:25:47.360Z,8.10
2022-12-22T03:28:15.331Z,8.20
2022-12-22T03:30:43.317Z,8.20
2022-12-22T03:33:12.829Z,8.20
2022-12-22T03:35:40.879Z,8.20
2022-12-22T03:38:08.866Z,8.10
2022-12-22T03:40:36.939Z,8.20
2022-12-22T03:43:22.255Z,8.20
2022-12-22T03:46:12.960Z,8.20
2022-12-22T03:48:42.857Z,8.20
2022-12-22T03:51:10.949Z,8.20
2022-12-22T03:53:38.909Z,8.20
2022-12-22T03:56:08.130Z,8.20
2022-12-22T03:58:36.407Z,8.10
2022-12-22T04:01:08.055Z,8.20
2022-12-22T04:03:36.132Z,8.00
2022-12-22T04:06:05.655Z,8.10
2022-12-22T04:08:33.609Z,8.20
2022-12-22T04:11:18.865Z,8.20
2022-12-22T04:13:46.848Z,8.20
2022-12-22T04:16:14.906Z,8.10
2022-12-22T04:18:42.876Z,8.20
2022-12-22T04:21:12.230Z,8.10
2022-12-22T04:23:40.216Z,8.20
2022-12-22T04:26:08.264Z,8.20
2022-12-22T04:28:36.367Z,8.20
2022-12-22T04:31:04.324Z,8.10
2022-12-22T04:33:32.235Z,8.20
2022-12-22T04:36:00.221Z,8.20
2022-12-22T04:38:29.508Z,8.20
2022-12-22T04:40:57.483Z,8.20
2022-12-22T04:43:25.444Z,8.20
2022-12-22T04:45:54.516Z,8.10
2022-12-22T04:48:23.070Z,8.20
2022-12-22T04:50:52.136Z,8.20
2022-12-22T04:53:20.531Z,8.20
2022-12-22T04:55:51.198Z,8.10
2022-12-22T04:58:19.186Z,8.20
2022-12-22T05:00:47.275Z,8.20
2022-12-22T05:03:15.446Z,8.20
2022-12-22T05:05:43.496Z,8.20
2022-12-22T05:08:11.678Z,8.20
2022-12-22T05:10:39.737Z,8.20
2022-12-22T05:13:09.105Z,8.20
2022-12-22T05:15:37.430Z,8.20
2022-12-22T05:18:05.979Z,8.20
2022-12-22T05:20:36.002Z,8.20
2022-12-22T05:23:04.060Z,8.20
2022-12-22T05:25:35.316Z,8.30
2022-12-22T05:28:03.754Z,8.20
2022-12-22T05:30:33.165Z,8.20
2022-12-22T05:33:01.255Z,8.20
2022-12-22T05:35:29.267Z,8.20
2022-12-22T05:37:57.291Z,8.20
2022-12-22T05:40:25.211Z,8.20
2022-12-22T05:42:53.208Z,8.20
2022-12-22T05:45:22.439Z,8.20
2022-12-22T05:47:53.284Z,8.20
2022-12-22T05:50:23.330Z,8.20
2022-12-22T05:52:51.704Z,8.10
2022-12-22T05:55:19.831Z,8.20
2022-12-22T05:57:47.765Z,8.30
2022-12-22T06:00:17.811Z,8.20
2022-12-22T06:02:46.275Z,8.20
2022-12-22T06:05:16.230Z,8.20
2022-12-22T06:07:44.340Z,8.20
2022-12-22T06:10:13.315Z,8.20
2022-12-22T06:12:41.876Z,8.20
2022-12-22T06:15:12.332Z,8.20
2022-12-22T06:17:44.615Z,8.20
2022-12-22T06:20:15.660Z,8.10
2022-12-22T06:22:43.672Z,8.20
2022-12-22T06:25:17.683Z,8.10
2022-12-22T06:27:46.724Z,8.20
2022-12-22T06:30:15.827Z,8.20
2022-12-22T06:32:43.834Z,8.10
2022-12-22T06:35:11.936Z,8.10
2022-12-22T06:37:41.339Z,8.10
2022-12-22T06:40:10.430Z,8.20
2022-12-22T06:42:56.910Z,8.00
2022-12-22T06:45:27.491Z,8.10
2022-12-22T06:47:55.459Z,8.10
2022-12-22T06:50:23.427Z,8.00
2022-12-22T06:52:52.793Z,8.10
2022-12-22T06:55:20.743Z,8.10
2022-12-22T06:57:48.702Z,8.10
2022-12-22T07:00:17.159Z,8.00
2022-12-22T07:02:45.293Z,8.00
2022-12-22T07:05:13.461Z,8.00
2022-12-22T07:07:41.384Z,8.00
2022-12-22T07:10:11.730Z,8.00
2022-12-22T07:12:40.017Z,7.90
2022-12-22T07:15:09.130Z,8.00
2022-12-22T07:17:37.242Z,7.90
2022-12-22T07:20:05.990Z,8.00
2022-12-22T07:22:33.915Z,7.90
2022-12-22T07:25:01.830Z,7.90
2022-12-22T07:27:31.128Z,7.90
2022-12-22T07:29:59.107Z,7.80
2022-12-22T07:32:27.105Z,7.90
2022-12-22T07:34:58.745Z,7.90
2022-12-22T07:37:29.462Z,7.70
2022-12-22T07:39:57.382Z,7.70
2022-12-22T07:42:42.646Z,7.80
2022-12-22T07:45:12.530Z,7.70
2022-12-22T07:47:40.915Z,7.70
2022-12-22T07:50:27.963Z,7.70
2022-12-22T07:52:57.175Z,7.60
2022-12-22T07:55:27.344Z,7.70
2022-12-22T07:57:56.315Z,7.60
2022-12-22T08:00:26.189Z,7.60
2022-12-22T08:02:55.845Z,7.60
2022-12-22T08:05:25.289Z,7.60
2022-12-22T08:07:53.771Z,7.50
2022-12-22T08:10:21.958Z,7.50
2022-12-22T08:12:49.961Z,7.50
2022-12-22T08:15:18.057Z,7.40
2022-12-22T08:17:47.404Z,7.40
2022-12-22T08:20:15.490Z,7.40
2022-12-22T08:22:43.487Z,7.40
2022-12-22T08:25:11.489Z,7.30
2022-12-22T08:27:45.260Z,7.20
2022-12-22T08:30:14.196Z,7.40
2022-12-22T08:32:43.499Z,7.20
2022-12-22T08:35:12.833Z,7.10
2022-12-22T08:37:45.130Z,7.10
2022-12-22T08:40:16.755Z,7.20
2022-12-22T08:42:45.263Z,7.10
2022-12-22T08:45:13.226Z,7.10
2022-12-22T08:47:41.303Z,7.20
2022-12-22T08:50:10.246Z,7.10
2022-12-22T08:52:39.502Z,7.00
2022-12-22T08:55:09.383Z,7.00
2022-12-22T08:57:37.581Z,7.00
2022-12-22T09:00:08.581Z,7.10
2022-12-22T09:02:37.101Z,7.00
2022-12-22T09:05:05.759Z,6.90
2022-12-22T09:07:33.757Z,6.90
2022-12-22T09:10:03.030Z,6.90
2022-12-22T09:12:31.064Z,6.80
2022-12-22T09:14:59.030Z,6.90
2022-12-22T09:17:27.069Z,6.90
2022-12-22T09:19:55.040Z,6.90
2022-12-22T09:22:28.191Z,6.90
2022-12-22T09:24:56.715Z,6.90
2022-12-22T09:27:26.087Z,6.80
2022-12-22T09:29:54.024Z,6.80
2022-12-22T09:32:22.052Z,6.90
2022-12-22T09:34:50.170Z,6.90
2022-12-22T09:37:18.544Z,6.80
2022-12-22T09:39:47.388Z,6.90
2022-12-22T09:42:19.264Z,6.80
2022-12-22T09:44:51.807Z,6.80
2022-12-22T09:47:25.660Z,6.80
2022-12-22T09:49:56.382Z,6.80
2022-12-22T09:52:31.760Z,6.90
2022-12-22T09:54:59.750Z,6.90
2022-12-22T09:57:31.896Z,6.90
2022-12-22T10:00:07.860Z,6.90
2022-12-22T10:02:44.972Z,6.90
2022-12-22T10:05:28.273Z,6.90
2022-12-22T10:08:01.844Z,7.00
2022-12-22T10:10:31.403Z,6.90
2022-12-22T10:13:01.730Z,6.90
2022-12-22T10:15:36.412Z,7.00
2022-12-22T10:18:11.708Z,6.90
2022-12-22T10:20:40.429Z,7.10
2022-12-22T10:23:17.503Z,7.10
2022-12-22T10:26:27.525Z,7.10
2022-12-22T10:28:51.337Z,7.10
2022-12-22T10:31:22.902Z,7.20
2022-12-22T10:33:52.930Z,7.20
2022-12-22T10:36:25.469Z,7.10
2022-12-22T10:39:00.215Z,7.20
2022-12-22T10:41:31.192Z,7.10
2022-12-22T10:44:02.259Z,7.20
2022-12-22T10:46:41.620Z,7.20
2022-12-22T10:49:16.532Z,7.30
2022-12-22T10:51:47.061Z,7.40
2022-12-22T10:54:29.219Z,7.30
2022-12-22T10:57:02.723Z,7.40
2022-12-22T10:59:31.899Z,7.40
2022-12-22T11:02:26.847Z,7.40
2022-12-22T11:04:55.939Z,7.50
2022-12-22T11:07:25.387Z,7.40
2022-12-22T11:09:53.452Z,7.50
2022-12-22T11:12:31.119Z,7.50
2022-12-22T11:15:06.805Z,7.50
2022-12-22T11:17:53.603Z,7.50
2022-12-22T11:20:52.560Z,7.50
2022-12-22T11:23:31.957Z,7.50
2022-12-22T11:26:09.795Z,7.60
2022-12-22T11:28:52.102Z,7.70
2022-12-22T11:31:39.256Z,7.80
2022-12-22T11:34:21.753Z,7.80
2022-12-22T11:37:02.908Z,7.80
2022-12-22T11:39:40.328Z,7.80
2022-12-22T11:42:24.648Z,7.80
2022-12-22T11:44:59.521Z,7.80
2022-12-22T11:47:36.116Z,7.90
2022-12-22T11:50:59.333Z,7.90
2022-12-22T11:53:35.122Z,8.00
2022-12-22T11:56:15.174Z,8.10
2022-12-22T11:58:59.859Z,8.10
2022-12-22T12:01:49.471Z,8.00
2022-12-22T12:04:45.223Z,8.00
2022-12-22T12:07:26.417Z,8.00
2022-12-22T12:10:04.708Z,8.00
2022-12-22T12:12:40.635Z,8.00
2022-12-22T12:15:20.332Z,7.90
2022-12-22T12:18:21.233Z,8.00
2022-12-22T12:21:01.341Z,8.00
2022-12-22T12:23:50.110Z,7.90
2022-12-22T12:26:22.500Z,8.00
2022-12-22T12:29:01.315Z,7.90
2022-12-22T12:31:35.971Z,7.90
2022-12-22T12:34:04.697Z,7.90
2022-12-22T12:36:41.872Z,7.90
2022-12-22T12:39:18.185Z,7.90
2022-12-22T12:41:59.420Z,7.80
2022-12-22T12:44:30.084Z,7.90
2022-12-22T12:47:24.007Z,7.90
2022-12-22T12:49:57.060Z,7.80
2022-12-22T12:53:05.677Z,7.90
2022-12-22T12:55:52.451Z,7.80
2022-12-22T12:58:48.877Z,7.80
2022-12-22T13:01:49.402Z,7.90
2022-12-22T13:05:14.358Z,7.90
2022-12-22T13:08:12.390Z,7.90
2022-12-22T13:10:45.307Z,7.90
2022-12-22T13:13:29.195Z,7.90
2022-12-22T13:16:31.936Z,7.90
2022-12-22T13:19:03.299Z,7.90
2022-12-22T13:21:52.807Z,7.90
2022-12-22T13:24:26.774Z,7.90
2022-12-22T13:27:01.608Z,7.90
2022-12-22T13:29:37.858Z,7.90
2022-12-22T13:32:19.929Z,7.90
2022-12-22T13:37:44.132Z,7.90
2022-12-22T13:40:16.566Z,7.90
2022-12-22T13:42:48.982Z,7.90
2022-12-22T13:45:30.241Z,7.90
2022-12-22T13:48:00.753Z,7.90
2022-12-22T13:50:34.211Z,7.90
2022-12-22T13:53:04.075Z,7.90
2022-12-22T13:55:33.674Z,7.90
2022-12-22T13:58:09.301Z,7.90
2022-12-22T14:00:37.524Z,7.90
2022-12-22T14:03:41.632Z,7.90
2022-12-22T14:06:20.632Z,7.90
2022-12-22T14:08:48.642Z,8.00
2022-12-22T14:11:16.632Z,8.00
2022-12-22T14:13:45.974Z,7.90
2022-12-22T14:16:15.613Z,8.00
2022-12-22T14:18:43.921Z,8.00
2022-12-22T14:21:13.347Z,8.00
2022-12-22T14:23:43.427Z,8.00
2022-12-22T14:26:18.725Z,7.90
2022-12-22T14:28:53.215Z,8.00
2022-12-22T14:31:21.384Z,8.00
2022-12-22T14:33:54.047Z,7.90
2022-12-22T14:36:24.389Z,7.90
2022-12-22T14:38:54.101Z,7.90
2022-12-22T14:41:44.508Z,8.00
2022-12-22T14:44:20.781Z,8.00
2022-12-22T14:47:06.412Z,8.00
2022-12-22T14:49:35.829Z,7.90
2022-12-22T14:52:09.017Z,8.00
2022-12-22T14:54:37.085Z,8.00
2022-12-22T14:57:15.714Z,8.00
2022-12-22T15:00:00.462Z,8.00
2022-12-22T15:02:38.311Z,8.00
2022-12-22T15:05:17.236Z,8.00
2022-12-22T15:08:07.847Z,8.00
2022-12-22T15:10:40.791Z,8.00
2022-12-22T15:13:14.566Z,7.90
2022-12-22T15:15:44.062Z,7.90
2022-12-22T15:18:15.442Z,8.00
2022-12-22T15:20:43.828Z,8.00
2022-12-22T15:23:16.703Z,7.90
2022-12-22T15:25:45.015Z,8.00
2022-12-22T15:28:12.971Z,7.90
2022-12-22T15:30:41.377Z,8.00
2022-12-22T15:33:14.304Z,8.00
2022-12-22T15:35:43.939Z,7.90
2022-12-22T15:38:14.848Z,8.00
2022-12-22T15:40:43.065Z,8.00
2022-12-22T15:43:28.790Z,8.00
2022-12-22T15:45:59.851Z,7.90
2022-12-22T15:48:32.962Z,8.00
2022-12-22T15:51:02.231Z,8.00
2022-12-22T15:53:30.813Z,7.90
2022-12-22T15:55:59.029Z,7.90
2022-12-22T15:58:28.999Z,7.90
2022-12-22T16:00:57.215Z,8.00
2022-12-22T16:03:25.435Z,8.00
2022-12-22T16:05:55.259Z,7.90
2022-12-22T16:08:28.567Z,7.90
2022-12-22T16:10:56.543Z,7.90
2022-12-22T16:13:28.543Z,8.00
2022-12-22T16:15:57.525Z,8.00
2022-12-22T16:18:25.892Z,7.90
2022-12-22T16:20:55.956Z,8.00
2022-12-22T16:23:27.544Z,8.00
2022-12-22T16:26:01.766Z,8.00
2022-12-22T16:28:30.928Z,8.00
2022-12-22T16:30:59.096Z,8.00
2022-12-22T16:33:27.164Z,8.00
2022-12-22T16:35:56.531Z,8.00
2022-12-22T16:38:24.469Z,8.10
2022-12-22T16:40:54.351Z,8.00
2022-12-22T16:46:16.084Z,8.00
2022-12-22T16:48:46.258Z,8.10
2022-12-22T16:51:20.209Z,8.00
2022-12-22T16:53:48.336Z,8.00
2022-12-22T16:56:19.429Z,8.00
2022-12-22T16:58:47.880Z,8.00
2022-12-22T17:01:25.182Z,8.00
2022-12-22T17:03:53.846Z,8.00
2022-12-22T17:06:23.413Z,8.00
2022-12-22T17:08:51.535Z,8.00
2022-12-22T17:11:23.194Z,8.00
2022-12-22T17:13:52.928Z,8.00
2022-12-22T17:16:22.682Z,8.00
2022-12-22T17:18:50.852Z,7.90
2022-12-22T17:21:20.106Z,8.00
2022-12-22T17:23:51.901Z,8.00
2022-12-22T17:26:22.024Z,8.00
2022-12-22T17:28:50.823Z,8.00
2022-12-22T17:31:22.429Z,8.00
2022-12-22T17:33:51.142Z,8.00
2022-12-22T17:36:28.299Z,8.00
2022-12-22T17:38:58.245Z,8.10
2022-12-22T17:41:26.275Z,8.00
2022-12-22T17:43:54.282Z,8.00
2022-12-22T17:46:22.803Z,8.00
2022-12-22T17:48:51.074Z,8.00
2022-12-22T17:51:22.140Z,8.10
2022-12-22T17:53:50.346Z,8.00
2022-12-22T17:56:21.769Z,8.00
2022-12-22T17:58:50.156Z,8.10
2022-12-22T18:01:26.790Z,8.10
2022-12-22T18:03:55.471Z,8.10
2022-12-22T18:06:26.531Z,8.00
2022-12-22T18:08:56.065Z,8.10
2022-12-22T18:11:26.156Z,8.00
2022-12-22T18:13:57.105Z,8.00
2022-12-22T18:16:25.276Z,8.10
2022-12-22T18:18:53.406Z,8.10
2022-12-22T18:21:23.293Z,8.00
2022-12-22T18:23:52.271Z,8.10
2022-12-22T18:26:23.425Z,8.10
2022-12-22T18:28:53.580Z,8.10
2022-12-22T18:31:22.678Z,8.00
2022-12-22T18:33:50.793Z,8.00
2022-12-22T18:36:20.800Z,8.10
2022-12-22T18:38:50.335Z,8.10
2022-12-22T18:41:22.064Z,8.10
2022-12-22T18:43:50.468Z,8.10
2022-12-22T18:46:20.814Z,8.10
2022-12-22T18:48:50.072Z,8.10
2022-12-22T18:51:20.956Z,8.10
2022-12-22T18:53:49.732Z,8.10
2022-12-22T18:56:18.627Z,8.10
2022-12-22T18:58:47.359Z,8.20
2022-12-22T19:01:22.164Z,8.10
2022-12-22T19:03:51.303Z,8.20
2022-12-22T19:06:21.842Z,8.20
2022-12-22T19:08:50.326Z,8.20
2022-12-22T19:11:22.513Z,8.20
2022-12-22T19:13:52.459Z,8.20
2022-12-22T19:16:27.654Z,8.20
2022-12-22T19:18:57.156Z,8.40
2022-12-22T19:21:25.275Z,8.30
2022-12-22T19:23:53.265Z,8.40
2022-12-22T19:26:23.594Z,8.40
2022-12-22T19:28:55.304Z,8.50
2022-12-22T19:31:27.287Z,8.40
2022-12-22T19:33:56.910Z,8.40
2022-12-22T19:36:27.722Z,8.50
2022-12-22T19:39:03.257Z,8.40
2022-12-22T19:41:41.974Z,8.40
2022-12-22T19:44:21.443Z,8.60
2022-12-22T19:46:51.669Z,8.60
2022-12-22T19:49:21.313Z,8.60
2022-12-22T19:51:50.675Z,8.60
2022-12-22T19:54:19.387Z,8.60
2022-12-22T19:56:50.837Z,8.60
2022-12-22T19:59:29.604Z,8.60
2022-12-22T20:02:02.289Z,8.60
2022-12-22T20:04:30.528Z,8.60
2022-12-22T20:06:58.450Z,8.60
2022-12-22T20:09:26.426Z,8.70
2022-12-22T20:11:54.386Z,8.70
2022-12-22T20:14:22.350Z,8.70
2022-12-22T20:16:50.375Z,8.60
2022-12-22T20:19:19.755Z,8.60
2022-12-22T20:21:47.714Z,8.70
2022-12-22T20:24:21.761Z,8.70
2022-12-22T20:26:54.127Z,8.70
2022-12-22T20:29:23.469Z,8.80
2022-12-22T20:31:51.630Z,8.80
2022-12-22T20:34:21.022Z,8.90
2022-12-22T20:36:49.115Z,8.90
2022-12-22T20:39:20.484Z,8.80
2022-12-22T20:41:53.334Z,8.90
2022-12-22T20:44:23.131Z,8.90
2022-12-22T20:46:51.261Z,8.90
2022-12-22T20:49:20.585Z,8.90
2022-12-22T20:51:48.765Z,9.00
2022-12-22T20:54:17.456Z,8.90
2022-12-22T20:56:45.897Z,9.00
2022-12-22T20:59:16.401Z,9.00
2022-12-22T21:01:44.487Z,9.00
2022-12-22T21:04:14.160Z,9.10
2022-12-22T21:06:48.094Z,9.10
2022-12-22T21:09:16.538Z,9.10
2022-12-22T21:11:44.872Z,9.10
2022-12-22T21:14:13.856Z,9.10
2022-12-22T21:16:42.910Z,9.20
2022-12-22T21:19:17.053Z,9.10
2022-12-22T21:21:46.530Z,9.10
2022-12-22T21:24:14.466Z,9.10
2022-12-22T21:26:45.382Z,9.10
2022-12-22T21:29:17.238Z,9.20
2022-12-22T21:31:45.593Z,9.10
2022-12-22T21:34:13.998Z,9.10
2022-12-22T21:36:44.915Z,9.20
2022-12-22T21:39:22.436Z,9.10
2022-12-22T21:42:04.543Z,9.10
2022-12-22T21:44:35.217Z,9.10
2022-12-22T21:47:03.909Z,9.10
2022-12-22T21:49:33.603Z,9.20
2022-12-22T21:52:01.844Z,9.10
2022-12-22T21:54:31.198Z,9.10
2022-12-22T21:56:59.555Z,9.20
2022-12-22T21:59:27.682Z,9.10
2022-12-22T22:01:56.452Z,9.10
2022-12-22T22:04:25.150Z,9.10
2022-12-22T22:06:53.109Z,9.20
2022-12-22T22:09:21.039Z,9.10
2022-12-22T22:12:08.013Z,9.20
2022-12-22T22:14:35.929Z,9.10
2022-12-22T22:17:03.892Z,9.10
2022-12-22T22:19:31.932Z,9.20
2022-12-22T22:21:59.907Z,9.10
2022-12-22T22:24:27.941Z,9.20
2022-12-22T22:26:57.286Z,9.20
2022-12-22T22:29:25.301Z,9.20
2022-12-22T22:31:53.309Z,9.20
2022-12-22T22:34:21.275Z,9.20
2022-12-22T22:36:49.211Z,9.30
2022-12-22T22:39:17.123Z,9.30
2022-12-22T22:41:45.070Z,9.20
2022-12-22T22:44:14.744Z,9.30
2022-12-22T22:46:42.774Z,9.30
2022-12-22T22:49:10.733Z,9.30
2022-12-22T22:51:38.686Z,9.30
2022-12-22T22:54:06.751Z,9.30
2022-12-22T22:56:35.505Z,9.30
2022-12-22T22:59:03.906Z,9.20
2022-12-22T23:01:33.272Z,9.30
2022-12-22T23:04:01.890Z,9.20
2022-12-22T23:06:29.927Z,9.30
2022-12-22T23:08:57.875Z,9.30
2022-12-22T23:11:26.230Z,9.30
2022-12-22T23:13:55.466Z,9.30
2022-12-22T23:16:24.442Z,9.30
2022-12-22T23:18:54.921Z,9.40
2022-12-22T23:21:24.131Z,9.30
2022-12-22T23:23:56.109Z,9.40
2022-12-22T23:26:24.274Z,9.30
2022-12-22T23:28:53.741Z,9.30
2022-12-22T23:31:23.579Z,9.40
2022-12-22T23:33:51.609Z,9.30
2022-12-22T23:36:20.983Z,9.40
2022-12-22T23:38:50.952Z,9.30
2022-12-22T23:41:19.296Z,9.30
2022-12-22T23:43:47.409Z,9.30
2022-12-22T23:46:17.228Z,9.30
2022-12-22T23:48:45.293Z,9.30
2022-12-22T23:51:13.427Z,9.30
2022-12-22T23:53:42.816Z,9.30
2022-12-22T23:56:10.975Z,9.30
2022-12-22T23:58:39.090Z,9.30
